Time;durP1;ratioP1;P1;durP2;ratioP2;P2;SDS_P1;SDS_P2;PMS_P1;PMS_P2;Temp;Humidity;BMP_temperature;BMP_pressure;BME280_temperature;BME280_humidity;BME280_pressure;Samples;Min_cycle;Max_cycle;Signal;HPM_P1;HPM_P2
2021/01/29 00:01:58;;;;;;;2.47;1.03;;;;;;;11.19;100.00;99090.34;631006;224;32552;-75
2021/01/29 00:04:26;;;;;;;2.00;1.20;;;;;;;10.94;100.00;99085.83;637739;225;25047;-75
2021/01/29 00:06:54;;;;;;;2.70;1.00;;;;;;;10.74;100.00;99097.70;636989;221;24744;-74
2021/01/29 00:09:22;;;;;;;2.27;1.10;;;;;;;10.81;100.00;99096.02;637894;223;29038;-76
2021/01/29 00:11:49;;;;;;;3.73;1.10;;;;;;;10.77;100.00;99088.25;636947;225;24774;-76
2021/01/29 00:14:17;;;;;;;4.13;1.23;;;;;;;10.60;100.00;99083.17;633248;225;24761;-76
2021/01/29 00:16:45;;;;;;;1.77;1.00;;;;;;;10.74;100.00;99081.61;638141;220;24756;-76
2021/01/29 00:19:13;;;;;;;2.33;1.23;;;;;;;10.72;100.00;99077.08;626207;228;24872;-77
2021/01/29 00:21:41;;;;;;;1.27;0.90;;;;;;;10.84;100.00;99077.45;625791;229;24807;-77
2021/01/29 00:24:09;;;;;;;1.97;0.90;;;;;;;10.69;100.00;99070.41;638497;225;24789;-77
2021/01/29 00:26:37;;;;;;;1.07;0.97;;;;;;;10.85;100.00;99072.10;626579;224;26941;-77
2021/01/29 00:29:05;;;;;;;1.53;1.00;;;;;;;10.82;100.00;99071.62;626704;228;24789;-75
2021/01/29 00:31:33;;;;;;;3.77;1.40;;;;;;;10.79;100.00;99065.47;629278;226;24839;-75
2021/01/29 00:34:01;;;;;;;1.23;0.90;;;;;;;10.84;100.00;99061.84;625901;228;24800;-73
2021/01/29 00:36:29;;;;;;;3.07;1.03;;;;;;;10.75;100.00;99057.22;624955;224;24785;-75
2021/01/29 00:38:56;;;;;;;1.77;1.17;;;;;;;10.75;100.00;99049.91;637374;224;24831;-75
2021/01/29 00:41:24;;;;;;;3.53;1.30;;;;;;;10.66;100.00;99038.27;639336;224;24789;-75
2021/01/29 00:43:52;;;;;;;2.77;1.50;;;;;;;10.70;100.00;99039.55;626045;229;24791;-75
2021/01/29 00:46:20;;;;;;;3.00;1.70;;;;;;;10.75;100.00;99033.81;626425;225;24785;-75
2021/01/29 00:48:48;;;;;;;1.50;1.10;;;;;;;10.87;100.00;99032.91;639351;224;24786;-75
2021/01/29 00:51:16;;;;;;;2.13;1.07;;;;;;;10.63;100.00;99032.12;626378;229;24791;-76
2021/01/29 00:53:44;;;;;;;2.80;1.03;;;;;;;10.63;100.00;99032.12;625712;229;24784;-75
2021/01/29 00:56:12;;;;;;;1.93;1.40;;;;;;;10.55;100.00;99017.06;626444;225;24890;-75
2021/01/29 00:58:40;;;;;;;6.00;1.37;;;;;;;10.45;100.00;99014.72;624908;229;24796;-75
2021/01/29 01:01:08;;;;;;;3.90;1.00;;;;;;;10.38;100.00;99009.87;638851;224;24796;-75
2021/01/29 01:03:36;;;;;;;2.20;1.20;;;;;;;10.44;100.00;99006.60;641794;224;24797;-75
2021/01/29 01:06:04;;;;;;;1.83;1.03;;;;;;;10.49;100.00;99005.58;639206;221;24806;-75
2021/01/29 01:08:32;;;;;;;2.63;1.47;;;;;;;10.55;100.00;98999.67;626550;229;24784;-75
2021/01/29 01:11:00;;;;;;;3.47;1.63;;;;;;;10.46;100.00;98990.34;624801;228;24818;-75
2021/01/29 01:13:28;;;;;;;3.13;1.57;;;;;;;10.49;100.00;98980.88;637470;223;24788;-75
2021/01/29 01:15:56;;;;;;;7.20;1.60;;;;;;;10.60;100.00;98966.17;637325;221;23833;-76
2021/01/29 01:18:24;;;;;;;1.30;1.20;;;;;;;10.44;100.00;98965.02;638723;224;24877;-75
2021/01/29 01:20:52;;;;;;;3.20;1.57;;;;;;;10.44;100.00;98962.41;638731;224;24957;-75
2021/01/29 01:23:20;;;;;;;1.80;1.40;;;;;;;10.52;100.00;98958.92;638640;224;24815;-75
2021/01/29 01:25:47;;;;;;;4.33;1.50;;;;;;;10.46;100.00;98952.64;625598;228;24889;-74
2021/01/29 01:28:15;;;;;;;2.07;1.27;;;;;;;10.52;100.00;98938.94;638823;221;24794;-75
2021/01/29 01:30:43;;;;;;;1.60;1.50;;;;;;;10.51;100.00;98933.42;641549;223;24756;-75
2021/01/29 01:33:11;;;;;;;1.27;1.20;;;;;;;10.30;100.00;98938.49;625865;229;24782;-75
2021/01/29 01:35:39;;;;;;;1.93;1.30;;;;;;;10.38;100.00;98926.71;640400;223;27031;-75
2021/01/29 01:38:07;;;;;;;2.73;1.40;;;;;;;10.49;100.00;98918.50;639499;221;24792;-75
2021/01/29 01:40:35;;;;;;;1.57;1.30;;;;;;;10.62;100.00;98916.59;638288;223;24998;-76
2021/01/29 01:43:03;;;;;;;1.90;1.30;;;;;;;10.70;100.00;98916.03;618963;229;43509;-75
2021/01/29 01:45:59;;;;;;;1.90;1.60;;;;;;;10.54;100.00;98913.56;620600;229;32686;-75
2021/01/29 01:48:32;;;;;;;2.08;1.37;;;;;;;10.72;100.00;98907.24;630334;225;32837;-75
2021/01/29 01:51:00;;;;;;;2.05;1.40;;;;;;;10.65;100.00;98894.94;619476;229;43717;-74
2021/01/29 01:53:28;;;;;;;2.20;1.47;;;;;;;10.53;100.00;98891.16;636710;222;22715;-76
2021/01/29 01:55:57;;;;;;;1.83;1.20;;;;;;;10.48;100.00;98888.29;633115;221;24834;-75
2021/01/29 01:58:25;;;;;;;1.27;1.17;;;;;;;10.57;100.00;98887.73;639244;225;24839;-74
2021/01/29 02:00:52;;;;;;;1.77;1.30;;;;;;;10.60;100.00;98880.37;638188;225;27002;-75
2021/01/29 02:03:20;;;;;;;1.90;1.40;;;;;;;10.72;100.00;98878.64;638056;225;24844;-75
2021/01/29 02:05:48;;;;;;;1.63;1.17;;;;;;;10.61;100.00;98873.37;638389;225;23853;-76
2021/01/29 02:08:16;;;;;;;1.67;1.40;;;;;;;10.49;100.00;98867.81;634320;225;24863;-76
2021/01/29 02:10:44;;;;;;;1.70;1.60;;;;;;;10.48;100.00;98854.50;624950;229;25064;-75
2021/01/29 02:13:12;;;;;;;1.80;1.60;;;;;;;10.40;100.00;98850.67;624930;228;24882;-75
2021/01/29 02:15:40;;;;;;;1.80;1.10;;;;;;;10.39;100.00;98849.86;640328;223;24813;-75
2021/01/29 02:18:08;;;;;;;1.47;1.23;;;;;;;10.38;100.00;98844.84;640128;220;24854;-76
2021/01/29 02:21:01;;;;;;;2.47;1.30;;;;;;;10.62;100.00;98829.50;633708;224;32643;-75
2021/01/29 02:23:40;;;;;;;1.37;1.20;;;;;;;10.45;100.00;98835.37;639184;224;24900;-74
2021/01/29 02:26:36;;;;;;;2.10;1.25;;;;;;;10.59;100.00;98829.37;620786;225;32740;-75
2021/01/29 02:29:37;;;;;;;1.40;1.20;;;;;;;10.51;100.00;98821.64;617658;228;25868;-75
2021/01/29 02:32:20;;;;;;;4.83;1.20;;;;;;;10.44;100.00;98816.86;626405;229;31175;-74
2021/01/29 02:35:04;;;;;;;2.50;1.30;;;;;;;10.51;100.00;98810.44;626108;229;23923;-75
2021/01/29 02:37:48;;;;;;;4.00;1.10;;;;;;;10.64;100.00;98803.63;627666;225;33047;-75
2021/01/29 02:40:20;;;;;;;2.53;1.30;;;;;;;10.63;100.00;98808.52;635184;225;23695;-75
2021/01/29 02:42:53;;;;;;;2.83;0.93;;;;;;;10.60;100.00;98805.47;623753;229;24790;-75
2021/01/29 02:45:24;;;;;;;1.40;1.30;;;;;;;10.57;100.00;98791.05;627425;227;25104;-75
2021/01/29 02:47:54;;;;;;;2.30;1.10;;;;;;;10.42;100.00;98785.54;627022;225;24832;-74
2021/01/29 02:50:28;;;;;;;1.30;1.13;;;;;;;10.51;100.00;98777.95;628599;226;24829;-73
2021/01/29 02:52:57;;;;;;;1.93;1.30;;;;;;;10.54;100.00;98770.59;627630;226;24840;-75
2021/01/29 02:55:27;;;;;;;4.67;1.40;;;;;;;10.58;100.00;98766.66;629186;224;24856;-75
2021/01/29 02:57:56;;;;;;;2.10;1.87;;;;;;;10.51;100.00;98763.16;629578;225;23885;-76
2021/01/29 03:00:25;;;;;;;3.43;1.60;;;;;;;10.44;100.00;98756.27;633317;225;24823;-74
2021/01/29 03:02:53;;;;;;;1.97;1.50;;;;;;;10.46;100.00;98757.70;635683;225;24883;-75
2021/01/29 03:05:21;;;;;;;2.40;1.47;;;;;;;10.47;100.00;98746.31;637085;223;24757;-75
2021/01/29 03:07:51;;;;;;;1.97;1.53;;;;;;;10.56;100.00;98742.64;629552;225;25127;-75
2021/01/29 03:10:20;;;;;;;2.22;1.62;;;;;;;10.65;100.00;98746.73;636495;223;32793;-75
2021/01/29 03:12:48;;;;;;;1.70;1.60;;;;;;;10.69;100.00;98729.77;633804;223;32661;-75
2021/01/29 03:15:16;;;;;;;2.07;1.87;;;;;;;10.62;100.00;98725.01;641645;223;29114;-75
2021/01/29 03:17:45;;;;;;;2.40;1.50;;;;;;;10.46;100.00;98714.81;639267;221;24809;-75
2021/01/29 03:20:15;;;;;;;1.90;1.80;;;;;;;10.42;100.00;98720.07;639835;224;24830;-75
2021/01/29 03:22:43;;;;;;;2.05;1.70;;;;;;;10.61;100.00;98706.50;632742;224;32683;-74
2021/01/29 03:25:12;;;;;;;5.00;1.90;;;;;;;10.44;100.00;98701.20;640055;224;23666;-74
2021/01/29 03:27:40;;;;;;;1.73;1.40;;;;;;;10.41;100.00;98695.04;641681;220;24796;-75
2021/01/29 03:30:10;;;;;;;1.60;1.50;;;;;;;10.48;100.00;98693.84;641205;224;24803;-74
2021/01/29 03:32:38;;;;;;;1.90;1.27;;;;;;;10.37;100.00;98682.11;639366;224;25901;-76
2021/01/29 03:35:07;;;;;;;1.40;1.30;;;;;;;10.41;100.00;98675.55;640356;224;24800;-75
2021/01/29 03:37:36;;;;;;;5.20;1.30;;;;;;;10.41;100.00;98666.45;640759;220;24776;-74
2021/01/29 03:40:06;;;;;;;5.07;1.20;;;;;;;10.37;100.00;98670.41;638543;224;24790;-75
2021/01/29 03:42:35;;;;;;;1.17;1.07;;;;;;;10.36;100.00;98666.20;640880;224;24780;-75
2021/01/29 03:45:05;;;;;;;1.40;1.20;;;;;;;10.41;100.00;98652.16;640443;224;27995;-75
2021/01/29 03:47:33;;;;;;;2.00;1.10;;;;;;;10.44;100.00;98644.02;633604;221;32637;-76
2021/01/29 03:50:08;;;;;;;1.93;1.00;;;;;;;10.38;100.00;98641.64;638971;223;23669;-75
2021/01/29 03:52:39;;;;;;;1.23;0.90;;;;;;;10.33;100.00;98632.30;626079;229;24785;-75
2021/01/29 03:55:11;;;;;;;2.53;1.00;;;;;;;10.28;100.00;98616.95;639670;223;24810;-75
2021/01/29 03:57:41;;;;;;;3.60;0.90;;;;;;;10.25;100.00;98613.39;640920;220;25972;-75
2021/01/29 04:00:22;;;;;;;1.63;0.87;;;;;;;10.29;100.00;98612.06;624217;224;24818;-75
2021/01/29 04:02:56;;;;;;;2.30;0.90;;;;;;;10.43;100.00;98608.63;623162;227;32814;-75
2021/01/29 04:05:24;;;;;;;2.80;1.13;;;;;;;10.30;100.00;98604.58;638825;224;23661;-76
2021/01/29 04:10:37;;;;;;;0.80;0.73;;;;;;;10.29;100.00;98588.19;624771;228;24784;-75
2021/01/29 04:13:06;;;;;;;1.17;0.77;;;;;;;10.38;100.00;98584.96;618977;228;43478;-75
2021/01/29 04:15:34;;;;;;;0.70;0.70;;;;;;;10.21;100.00;98579.19;624620;229;24978;-76
2021/01/29 04:18:02;;;;;;;1.80;1.00;;;;;;;10.29;100.00;98588.19;639815;222;24759;-75
2021/01/29 04:20:30;;;;;;;1.80;0.80;;;;;;;10.43;100.00;98578.73;640345;223;24773;-76
2021/01/29 04:22:58;;;;;;;0.97;0.60;;;;;;;10.31;100.00;98571.11;640640;223;26964;-76
2021/01/29 04:25:26;;;;;;;1.30;1.03;;;;;;;10.32;100.00;98564.92;638990;223;24761;-76
2021/01/29 04:27:55;;;;;;;1.80;0.73;;;;;;;10.18;100.00;98555.34;632517;225;24831;-76
2021/01/29 04:30:24;;;;;;;2.30;0.80;;;;;;;10.18;100.00;98550.95;640301;223;24729;-75
2021/01/29 04:32:52;;;;;;;2.40;0.80;;;;;;;10.15;100.00;98534.44;627400;229;24984;-74
2021/01/29 04:35:20;;;;;;;2.10;0.80;;;;;;;10.43;100.00;98531.95;635192;224;32648;-76
2021/01/29 04:37:53;;;;;;;0.97;0.70;;;;;;;10.29;100.00;98526.32;635050;221;23663;-75
2021/01/29 04:40:22;;;;;;;2.70;1.00;;;;;;;10.18;100.00;98518.48;621760;229;24782;-75
2021/01/29 04:42:58;;;;;;;2.33;0.90;;;;;;;10.34;100.00;98522.66;620388;229;32696;-76
2021/01/29 04:45:46;;;;;;;2.13;0.70;;;;;;;10.46;100.00;98525.08;616049;229;32643;-76
2021/01/29 04:48:15;;;;;;;2.65;0.88;;;;;;;10.39;100.00;98538.49;618629;227;33083;-76
2021/01/29 04:50:46;;;;;;;2.67;0.80;;;;;;;10.39;100.00;98517.70;621244;229;32658;-76
2021/01/29 04:53:23;;;;;;;1.20;0.73;;;;;;;10.11;100.00;98507.20;624831;229;23697;-76
2021/01/29 04:56:13;;;;;;;2.70;1.13;;;;;;;10.07;100.00;98504.17;627115;228;24847;-76
2021/01/29 04:58:42;;;;;;;1.60;0.77;;;;;;;10.10;100.00;98492.11;632186;225;43292;-73
2021/01/29 05:01:33;;;;;;;1.70;0.80;;;;;;;10.21;100.00;98490.86;630447;225;32506;-73
2021/01/29 05:04:18;;;;;;;5.73;1.50;;;;;;;10.20;100.00;98485.82;636859;223;22845;-73
2021/01/29 05:06:52;;;;;;;1.50;0.85;;;;;;;10.10;100.00;98480.92;632093;221;32580;-73
2021/01/29 05:09:46;;;;;;;1.80;1.07;;;;;;;10.16;100.00;98475.00;622707;228;25890;-75
2021/01/29 05:12:39;;;;;;;0.80;0.70;;;;;;;10.12;100.00;98464.65;625267;228;26952;-74
2021/01/29 05:15:15;;;;;;;1.53;0.77;;;;;;;9.99;100.00;98460.16;619763;225;24812;-73
2021/01/29 05:18:16;;;;;;;2.07;0.70;;;;;;;9.99;100.00;98457.56;631791;225;24865;-73
2021/01/29 05:20:49;;;;;;;1.70;0.60;;;;;;;10.04;100.00;98438.81;618248;225;32775;-73
2021/01/29 05:23:27;;;;;;;1.17;0.90;;;;;;;10.04;100.00;98445.31;634873;225;22734;-73
2021/01/29 05:26:12;;;;;;;1.37;0.77;;;;;;;10.11;100.00;98422.78;632017;224;24793;-73
2021/01/29 05:28:47;;;;;;;1.50;0.70;;;;;;;10.17;100.00;98409.06;640445;223;23810;-74
2021/01/29 05:31:37;;;;;;;0.70;0.70;;;;;;;10.12;100.00;98401.81;626211;229;26956;-72
2021/01/29 05:34:10;;;;;;;0.50;0.50;;;;;;;10.23;100.00;98413.53;637030;223;24780;-74
2021/01/29 05:36:45;;;;;;;5.73;0.93;;;;;;;10.28;100.00;98405.20;641169;221;24991;-74
2021/01/29 05:39:19;;;;;;;1.50;0.70;;;;;;;10.43;100.00;98416.30;619899;229;32710;-74
2021/01/29 05:42:04;;;;;;;2.20;0.80;;;;;;;10.36;100.00;98412.34;633532;224;32985;-73
2021/01/29 05:44:40;;;;;;;1.02;0.70;;;;;;;10.34;100.00;98422.63;617729;229;32661;-74
2021/01/29 05:47:14;;;;;;;2.07;1.90;;;;;;;10.24;100.00;98419.53;628129;225;23691;-74
2021/01/29 05:49:47;;;;;;;4.73;0.90;;;;;;;10.19;100.00;98415.37;640673;223;24797;-74
2021/01/29 05:52:43;;;;;;;0.60;0.60;;;;;;;10.24;100.00;98416.44;626870;229;24762;-74
2021/01/29 05:55:21;;;;;;;0.80;0.70;;;;;;;10.28;100.00;98395.61;637438;223;25329;-74
2021/01/29 05:57:59;;;;;;;0.90;0.60;;;;;;;10.28;100.00;98394.80;638370;222;29262;-74
2021/01/29 06:00:48;;;;;;;1.43;0.70;;;;;;;10.26;100.00;98398.05;624209;229;24788;-74
2021/01/29 06:03:28;;;;;;;0.50;0.50;;;;;;;10.40;100.00;98427.85;616310;229;26052;-74
2021/01/29 06:06:07;;;;;;;0.70;0.50;;;;;;;10.70;100.00;98412.90;624604;229;24791;-73
2021/01/29 06:08:46;;;;;;;0.50;0.50;;;;;;;10.73;100.00;98414.31;611532;230;24916;-73
2021/01/29 06:11:37;;;;;;;0.97;0.60;;;;;;;10.80;98.76;98413.03;626764;228;24780;-74
2021/01/29 06:14:21;;;;;;;1.43;0.50;;;;;;;10.76;96.88;98418.32;638959;224;24769;-73
2021/01/29 06:16:58;;;;;;;0.80;0.53;;;;;;;10.72;95.71;98403.61;625277;225;24769;-74
2021/01/29 06:19:34;;;;;;;0.50;0.50;;;;;;;10.69;95.19;98430.77;620465;229;24801;-74
2021/01/29 06:22:20;;;;;;;0.57;0.40;;;;;;;10.62;97.40;98453.83;621577;229;32621;-74
2021/01/29 06:24:59;;;;;;;1.07;0.60;;;;;;;10.61;98.61;98454.33;636955;225;24776;-74
2021/01/29 06:27:36;;;;;;;0.50;0.50;;;;;;;10.60;96.81;98473.52;626522;225;24775;-74
2021/01/29 06:30:19;;;;;;;0.53;0.50;;;;;;;10.52;97.57;98476.73;625311;224;24830;-74
2021/01/29 06:32:54;;;;;;;0.50;0.50;;;;;;;10.50;95.66;98474.33;624460;229;24853;-74
2021/01/29 06:35:30;;;;;;;0.60;0.60;;;;;;;10.58;95.76;98483.30;622739;228;24985;-74
2021/01/29 06:38:07;;;;;;;1.00;0.60;;;;;;;10.59;96.31;98505.70;621799;225;32767;-74
2021/01/29 06:40:35;;;;;;;1.75;0.50;;;;;;;10.58;94.44;98492.40;622257;227;32848;-75
2021/01/29 06:43:20;;;;;;;1.20;0.50;;;;;;;10.54;94.67;98506.73;621469;228;32668;-75
2021/01/29 06:45:59;;;;;;;0.90;0.50;;;;;;;10.49;95.17;98526.00;628677;228;23701;-74
2021/01/29 06:48:54;;;;;;;0.60;0.50;;;;;;;10.48;94.60;98521.80;626437;229;28214;-73
2021/01/29 06:51:48;;;;;;;0.77;0.60;;;;;;;10.40;96.15;98540.09;623549;228;24800;-74
2021/01/29 06:54:27;;;;;;;0.57;0.57;;;;;;;10.42;97.02;98537.34;640365;223;24780;-74
2021/01/29 06:57:07;;;;;;;2.40;0.50;;;;;;;10.51;96.27;98550.50;640374;220;24828;-74
2021/01/29 06:59:47;;;;;;;2.10;0.50;;;;;;;10.61;96.32;98547.91;624159;225;33991;-74
2021/01/29 07:02:40;;;;;;;0.90;0.50;;;;;;;10.50;96.24;98558.80;627842;225;32470;-75
2021/01/29 07:05:34;;;;;;;0.50;0.50;;;;;;;10.44;96.17;98558.75;628772;225;23699;-74
2021/01/29 07:08:08;;;;;;;0.80;0.60;;;;;;;10.47;96.37;98561.77;625301;228;24795;-74
2021/01/29 07:10:49;;;;;;;1.57;0.60;;;;;;;10.48;95.19;98564.68;631920;225;24823;-73
2021/01/29 07:13:19;;;;;;;0.80;0.80;;;;;;;10.47;96.44;98577.37;628675;225;24842;-74
2021/01/29 07:15:53;;;;;;;0.77;0.77;;;;;;;10.47;96.64;98571.37;639146;224;24803;-74
2021/01/29 07:18:27;;;;;;;0.60;0.50;;;;;;;10.47;96.06;98579.97;639908;221;26943;-73
2021/01/29 07:21:01;;;;;;;1.10;0.60;;;;;;;10.52;96.30;98582.00;619086;229;32626;-74
2021/01/29 07:23:41;;;;;;;0.60;0.60;;;;;;;10.55;95.66;98579.83;636629;225;24890;-74
2021/01/29 07:26:15;;;;;;;0.90;0.50;;;;;;;10.58;95.82;98583.38;638400;221;23809;-73
2021/01/29 07:28:48;;;;;;;1.80;0.60;;;;;;;10.59;95.14;98574.59;638981;224;24777;-73
2021/01/29 07:31:21;;;;;;;0.50;0.50;;;;;;;10.55;95.58;98606.32;639548;224;32287;-73
2021/01/29 07:33:52;;;;;;;1.00;1.00;;;;;;;10.50;95.66;98592.59;638912;224;24820;-73
2021/01/29 07:36:43;;;;;;;0.85;0.50;;;;;;;10.68;93.65;98589.06;615069;225;33251;-73
2021/01/29 07:39:30;;;;;;;0.53;0.50;;;;;;;10.66;93.02;98612.34;626116;228;23727;-73
2021/01/29 07:42:02;;;;;;;0.50;0.50;;;;;;;10.72;93.48;98600.41;627693;226;27006;-73
2021/01/29 07:44:34;;;;;;;0.60;0.60;;;;;;;10.68;93.63;98611.66;627236;226;24820;-74
2021/01/29 07:47:14;;;;;;;1.10;0.60;;;;;;;10.74;93.07;98598.42;638692;221;24787;-73
2021/01/29 07:49:49;;;;;;;0.80;0.60;;;;;;;10.71;92.99;98621.70;626019;229;24783;-74
2021/01/29 07:52:21;;;;;;;1.23;0.50;;;;;;;10.68;93.53;98607.75;626729;228;24097;-73
2021/01/29 07:55:05;;;;;;;0.63;0.50;;;;;;;10.66;93.70;98607.95;628917;227;24812;-74
2021/01/29 07:57:54;;;;;;;1.20;0.70;;;;;;;10.66;93.86;98622.74;618194;229;24807;-73
2021/01/29 08:00:24;;;;;;;0.80;0.60;;;;;;;10.65;93.86;98605.53;622236;229;24777;-74
2021/01/29 08:03:17;;;;;;;1.77;0.60;;;;;;;10.73;93.22;98591.62;641646;223;24809;-73
2021/01/29 08:05:45;;;;;;;2.37;0.60;;;;;;;10.72;94.17;98608.21;637693;224;27953;-73
2021/01/29 08:08:13;;;;;;;0.60;0.60;;;;;;;10.69;94.23;98615.37;626652;225;27992;-74
2021/01/29 08:10:41;;;;;;;0.60;0.53;;;;;;;10.67;94.52;98623.05;624712;229;24802;-74
2021/01/29 08:13:11;;;;;;;0.67;0.50;;;;;;;10.63;94.95;98625.22;626084;229;24095;-74
2021/01/29 08:15:43;;;;;;;0.60;0.60;;;;;;;10.65;95.01;98632.83;637985;224;24777;-74
2021/01/29 08:18:24;;;;;;;0.97;0.60;;;;;;;10.63;95.54;98627.02;637341;221;27953;-74
2021/01/29 08:20:59;;;;;;;2.40;0.60;;;;;;;10.60;95.88;98629.98;627676;229;23793;-73
2021/01/29 08:23:28;;;;;;;0.90;0.70;;;;;;;10.64;95.51;98622.92;641514;223;24769;-74
2021/01/29 08:26:19;;;;;;;1.10;0.87;;;;;;;10.74;94.92;98629.13;638198;224;24773;-74
2021/01/29 08:28:58;;;;;;;5.00;0.80;;;;;;;10.61;95.33;98631.59;628148;225;24954;-74
2021/01/29 08:31:50;;;;;;;3.27;0.70;;;;;;;10.68;93.39;98630.66;636010;225;23834;-74
2021/01/29 08:34:40;;;;;;;0.70;0.60;;;;;;;10.64;94.64;98640.33;621133;229;24861;-74
2021/01/29 08:37:16;;;;;;;3.25;0.80;;;;;;;10.74;92.95;98628.33;620422;225;32719;-74
2021/01/29 08:39:46;;;;;;;1.27;0.57;;;;;;;10.73;92.67;98629.32;625669;229;23661;-73
2021/01/29 08:42:16;;;;;;;2.37;0.80;;;;;;;10.79;91.77;98638.97;638549;225;27979;-74
2021/01/29 08:45:15;;;;;;;2.93;0.90;;;;;;;10.82;90.29;98625.09;636864;225;25316;-73
2021/01/29 08:47:51;;;;;;;1.57;0.80;;;;;;;10.94;89.02;98630.61;625530;225;23835;-73
2021/01/29 08:50:23;;;;;;;1.70;0.97;;;;;;;10.95;87.57;98637.42;621235;229;26952;-74
2021/01/29 08:53:02;;;;;;;5.40;1.00;;;;;;;10.89;88.61;98635.08;627141;228;24826;-74
2021/01/29 08:55:33;;;;;;;1.30;1.00;;;;;;;11.03;86.84;98639.10;625787;229;27968;-74
2021/01/29 08:58:03;;;;;;;2.43;0.77;;;;;;;10.96;88.09;98634.63;626405;225;24799;-74
2021/01/29 09:00:30;;;;;;;2.53;1.37;;;;;;;10.97;87.36;98667.95;625277;229;26184;-74
2021/01/29 09:03:01;;;;;;;3.50;1.47;;;;;;;11.00;86.97;98662.39;641007;223;24801;-73
2021/01/29 09:05:29;;;;;;;4.30;1.70;;;;;;;11.04;85.41;98648.02;642334;223;24787;-74
2021/01/29 09:07:58;;;;;;;3.87;1.40;;;;;;;11.09;83.11;98641.75;637314;221;26921;-74
2021/01/29 09:10:28;;;;;;;1.80;1.10;;;;;;;11.10;82.91;98654.26;639130;222;31166;-74
2021/01/29 09:12:58;;;;;;;4.27;1.00;;;;;;;11.06;84.32;98655.62;636001;224;24822;-74
2021/01/29 09:15:26;;;;;;;8.40;1.10;;;;;;;11.08;83.81;98663.55;631713;224;32537;-74
2021/01/29 09:17:55;;;;;;;6.40;1.40;;;;;;;11.09;83.10;98663.86;638101;221;23656;-74
2021/01/29 09:20:25;;;;;;;3.13;1.00;;;;;;;11.11;82.24;98669.68;637775;224;25040;-74
2021/01/29 09:22:53;;;;;;;6.60;1.57;;;;;;;11.11;83.21;98680.09;637801;225;27945;-74
2021/01/29 09:25:21;;;;;;;3.73;1.00;;;;;;;11.18;81.68;98679.67;637217;225;24749;-74
2021/01/29 09:27:52;;;;;;;5.87;1.33;;;;;;;11.41;81.27;98682.57;637636;221;24763;-74
2021/01/29 09:30:22;;;;;;;5.50;1.20;;;;;;;11.63;81.46;98671.11;637867;224;25111;-74
2021/01/29 09:32:55;;;;;;;5.53;1.37;;;;;;;11.71;79.58;98684.49;638380;225;26993;-74
2021/01/29 09:35:25;;;;;;;4.40;1.17;;;;;;;11.67;78.82;98696.27;638940;223;24760;-74
2021/01/29 09:37:53;;;;;;;5.30;1.35;;;;;;;11.52;80.35;98696.35;620678;225;43438;-74
2021/01/29 09:40:22;;;;;;;5.50;1.23;;;;;;;11.45;80.56;98709.83;624660;228;24862;-74
2021/01/29 09:42:54;;;;;;;4.10;1.60;;;;;;;11.32;80.37;98716.22;623065;230;24832;-73
2021/01/29 09:45:20;;;;;;;3.47;1.40;;;;;;;11.15;82.49;98732.58;625777;226;24850;-74
2021/01/29 09:47:47;;;;;;;3.77;1.20;;;;;;;11.05;83.60;98739.38;637035;221;24788;-73
2021/01/29 09:50:18;;;;;;;4.80;1.43;;;;;;;11.01;84.41;98744.66;625437;228;24839;-74
2021/01/29 09:52:53;;;;;;;4.30;1.67;;;;;;;10.94;86.35;98756.27;635119;224;24852;-74
2021/01/29 09:55:21;;;;;;;6.77;1.37;;;;;;;10.95;86.55;98753.98;623235;229;24890;-74
2021/01/29 09:57:49;;;;;;;4.63;1.20;;;;;;;11.00;85.96;98753.45;624886;225;24905;-74
2021/01/29 10:00:18;;;;;;;3.80;1.33;;;;;;;11.12;85.74;98759.78;619270;227;24831;-74
2021/01/29 10:02:49;;;;;;;4.53;1.50;;;;;;;11.27;84.82;98750.63;632550;225;24840;-74
2021/01/29 10:05:22;;;;;;;6.20;1.30;;;;;;;11.39;84.35;98761.32;636746;224;24789;-73
2021/01/29 10:07:56;;;;;;;8.73;1.40;;;;;;;11.39;83.62;98744.40;624788;226;24792;-74
2021/01/29 10:10:28;;;;;;;7.70;2.33;;;;;;;11.52;82.71;98730.20;636462;226;24828;-74
2021/01/29 10:12:55;;;;;;;3.83;1.30;;;;;;;11.55;83.63;98748.08;626957;229;24784;-73
2021/01/29 10:15:23;;;;;;;5.17;1.60;;;;;;;11.46;83.41;98743.98;628639;227;24831;-74
2021/01/29 10:17:55;;;;;;;8.63;1.87;;;;;;;11.34;82.53;98739.77;626945;224;24806;-74
2021/01/29 10:20:23;;;;;;;6.80;1.40;;;;;;;11.22;81.86;98730.84;631373;224;27987;-73
2021/01/29 10:23:17;;;;;;;8.40;2.53;;;;;;;11.10;81.55;98741.42;638760;224;24849;-73
2021/01/29 10:25:48;;;;;;;6.27;2.13;;;;;;;11.09;82.50;98751.02;633901;224;24759;-74
2021/01/29 10:28:17;;;;;;;5.50;1.50;;;;;;;11.10;81.38;98747.43;638733;224;27997;-74
2021/01/29 10:30:47;;;;;;;6.17;1.60;;;;;;;11.09;83.50;98751.02;625678;228;24798;-73
2021/01/29 10:33:16;;;;;;;4.30;1.70;;;;;;;11.05;84.10;98751.09;627181;228;24831;-74
2021/01/29 10:35:44;;;;;;;4.13;1.37;;;;;;;11.11;83.09;98753.44;626677;227;24905;-73
2021/01/29 10:38:13;;;;;;;6.10;2.03;;;;;;;11.16;83.21;98745.91;627872;225;23875;-74
2021/01/29 10:40:41;;;;;;;7.60;1.67;;;;;;;11.15;82.21;98753.41;637535;225;24757;-74
2021/01/29 10:43:11;;;;;;;6.93;1.87;;;;;;;11.24;80.21;98728.35;632935;224;39877;-74
2021/01/29 10:45:40;;;;;;;3.50;1.37;;;;;;;11.23;80.86;98755.37;637421;225;24747;-74
2021/01/29 10:48:10;;;;;;;5.67;1.57;;;;;;;11.22;81.57;98755.56;632182;220;32539;-73
2021/01/29 10:50:42;;;;;;;6.10;1.40;;;;;;;11.16;82.58;98753.21;639155;224;22749;-73
2021/01/29 10:53:11;;;;;;;5.85;1.50;;;;;;;11.20;81.91;98745.83;632113;225;32550;-74
2021/01/29 10:55:38;;;;;;;7.23;1.37;;;;;;;11.17;81.84;98744.41;636231;225;27873;-74
2021/01/29 10:58:23;;;;;;;5.17;1.77;;;;;;;11.18;82.06;98764.23;637837;220;25275;-73
2021/01/29 11:00:53;;;;;;;5.53;1.97;;;;;;;11.25;81.41;98748.18;636926;223;23834;-74
2021/01/29 11:03:21;;;;;;;11.30;2.57;;;;;;;11.30;78.52;98743.24;632617;225;24981;-74
2021/01/29 11:05:49;;;;;;;5.50;1.80;;;;;;;11.33;79.69;98739.45;631511;225;35755;-74
2021/01/29 11:08:22;;;;;;;6.50;1.50;;;;;;;11.35;78.91;98745.77;637287;225;28000;-73
2021/01/29 11:10:51;;;;;;;8.53;1.67;;;;;;;11.39;78.26;98730.08;638737;223;26914;-73
2021/01/29 11:13:19;;;;;;;7.93;1.30;;;;;;;11.39;78.27;98732.19;632363;225;24715;-74
2021/01/29 11:15:47;;;;;;;5.95;1.90;;;;;;;11.50;76.91;98727.78;631552;223;32625;-74
2021/01/29 11:18:15;;;;;;;18.20;9.03;;;;;;;11.50;76.40;98746.02;638871;221;24730;-74
2021/01/29 11:20:43;;;;;;;14.33;4.03;;;;;;;11.50;77.19;98737.39;637334;222;24763;-74
2021/01/29 11:23:20;;;;;;;4.03;2.30;;;;;;;11.49;77.04;98729.28;638076;225;24815;-74
2021/01/29 11:25:52;;;;;;;4.23;1.43;;;;;;;11.62;75.30;98739.00;637547;223;24820;-75
2021/01/29 11:28:28;;;;;;;8.60;2.10;;;;;;;11.91;75.65;98751.07;634179;224;23795;-75
2021/01/29 11:30:55;;;;;;;11.67;5.07;;;;;;;12.07;74.84;98754.69;624284;229;24872;-75
2021/01/29 11:33:25;;;;;;;6.83;1.50;;;;;;;12.11;75.19;98749.42;621987;229;32826;-74
2021/01/29 11:35:56;;;;;;;16.83;9.93;;;;;;;12.42;75.51;98751.09;625766;226;25902;-74
2021/01/29 11:38:32;;;;;;;8.07;1.47;;;;;;;12.27;76.14;98741.30;635193;220;24830;-75
2021/01/29 11:41:04;;;;;;;7.87;3.33;;;;;;;12.16;75.59;98739.22;629762;225;32864;-74
2021/01/29 11:43:35;;;;;;;5.80;1.50;;;;;;;12.24;74.06;98715.59;633437;225;24829;-74
2021/01/29 11:46:05;;;;;;;8.67;2.00;;;;;;;12.09;73.52;98721.42;633603;225;24840;-74
2021/01/29 11:48:33;;;;;;;7.17;1.63;;;;;;;12.44;75.12;98723.02;639111;224;24836;-74
2021/01/29 11:51:02;;;;;;;6.10;1.40;;;;;;;12.45;76.36;98716.00;626074;229;24787;-74
2021/01/29 11:53:33;;;;;;;6.23;1.20;;;;;;;12.26;75.82;98707.60;627910;227;24838;-74
2021/01/29 11:56:00;;;;;;;7.77;1.53;;;;;;;12.17;74.98;98724.69;624930;229;24815;-74
2021/01/29 11:58:30;;;;;;;6.00;1.33;;;;;;;11.93;76.75;98717.81;629250;224;24821;-74
2021/01/29 12:00:59;;;;;;;8.85;1.62;;;;;;;11.85;77.19;98729.20;623779;228;32931;-74